createdAt,value
2023-02-22T00:01:42.813Z,5.73
2023-02-22T00:04:10.824Z,5.66
2023-02-22T00:06:37.232Z,5.62
2023-02-22T00:09:03.867Z,5.60
2023-02-22T00:11:31.601Z,5.57
2023-02-22T00:13:58.315Z,5.55
2023-02-22T00:16:26.032Z,5.54
2023-02-22T00:18:53.241Z,5.51
2023-02-22T00:21:20.700Z,5.49
2023-02-22T00:23:48.144Z,5.47
2023-02-22T00:26:21.525Z,5.43
2023-02-22T00:28:50.926Z,5.38
2023-02-22T00:31:18.067Z,5.34
2023-02-22T00:33:44.791Z,5.29
2023-02-22T00:36:13.211Z,5.27
2023-02-22T00:38:40.477Z,5.23
2023-02-22T00:41:07.216Z,5.20
2023-02-22T00:43:34.202Z,5.19
2023-02-22T00:46:00.796Z,5.20
2023-02-22T00:48:28.302Z,5.21
2023-02-22T00:50:57.904Z,5.22
2023-02-22T00:53:25.316Z,5.20
2023-02-22T00:55:52.729Z,5.17
2023-02-22T00:58:19.221Z,5.14
2023-02-22T01:00:46.852Z,5.10
2023-02-22T01:03:15.298Z,5.06
2023-02-22T01:05:42.942Z,5.02
2023-02-22T01:08:12.057Z,4.97
2023-02-22T01:10:40.057Z,4.92
2023-02-22T01:13:09.174Z,4.89
2023-02-22T01:15:37.483Z,4.87
2023-02-22T01:18:05.227Z,4.85
2023-02-22T01:20:32.451Z,4.84
2023-02-22T01:23:01.103Z,4.83
2023-02-22T01:25:30.728Z,4.79
2023-02-22T01:27:58.845Z,4.76
2023-02-22T01:30:28.527Z,4.74
2023-02-22T01:32:55.725Z,4.72
2023-02-22T01:35:25.721Z,4.72
2023-02-22T01:37:52.165Z,4.69
2023-02-22T01:40:25.843Z,4.69
2023-02-22T01:42:57.647Z,4.69
2023-02-22T01:45:30.364Z,4.68
2023-02-22T01:48:24.908Z,4.69
2023-02-22T01:51:13.890Z,4.66
2023-02-22T01:53:43.209Z,4.67
2023-02-22T01:56:10.304Z,4.67
2023-02-22T01:58:39.981Z,4.67
2023-02-22T02:01:07.190Z,4.67
2023-02-22T02:03:37.123Z,4.71
2023-02-22T02:06:08.021Z,4.75
2023-02-22T02:08:51.806Z,4.76
2023-02-22T02:11:21.998Z,4.78
2023-02-22T02:13:57.865Z,4.77
2023-02-22T02:16:35.730Z,4.77
2023-02-22T02:19:03.480Z,4.78
2023-02-22T02:21:58.384Z,4.77
2023-02-22T02:24:50.455Z,4.75
2023-02-22T02:27:47.781Z,4.72
2023-02-22T02:30:42.190Z,4.66
2023-02-22T02:33:29.419Z,4.62
2023-02-22T02:36:12.707Z,4.59
2023-02-22T02:38:45.741Z,4.55
2023-02-22T02:41:21.662Z,4.50
2023-02-22T02:44:15.792Z,4.41
2023-02-22T02:46:56.212Z,4.33
2023-02-22T02:49:29.061Z,4.31
2023-02-22T02:51:57.038Z,4.30
2023-02-22T02:54:24.848Z,4.29
2023-02-22T02:56:51.295Z,4.31
2023-02-22T02:59:32.681Z,4.34
2023-02-22T03:02:02.210Z,4.35
2023-02-22T03:04:48.911Z,4.35
2023-02-22T03:07:27.098Z,4.37
2023-02-22T03:10:38.567Z,4.36
2023-02-22T03:13:24.767Z,4.34
2023-02-22T03:16:21.368Z,4.33
2023-02-22T03:19:07.204Z,4.32
2023-02-22T03:21:50.235Z,4.32
2023-02-22T03:24:52.894Z,4.32
2023-02-22T03:27:35.117Z,4.33
2023-02-22T03:30:07.299Z,4.38
2023-02-22T03:32:39.247Z,4.43
2023-02-22T03:35:10.010Z,4.46
2023-02-22T03:37:41.180Z,4.51
2023-02-22T03:40:16.684Z,4.59
2023-02-22T03:42:48.812Z,4.63
2023-02-22T03:45:17.694Z,4.66
2023-02-22T03:47:58.516Z,4.70
2023-02-22T03:50:33.004Z,4.72
2023-02-22T03:52:59.472Z,4.69
2023-02-22T03:55:28.742Z,4.67
2023-02-22T03:57:59.055Z,4.63
2023-02-22T04:00:29.974Z,4.62
2023-02-22T04:02:56.779Z,4.59
2023-02-22T04:05:25.063Z,4.60
2023-02-22T04:07:57.060Z,4.60
2023-02-22T04:10:24.959Z,4.59
2023-02-22T04:12:51.941Z,4.60
2023-02-22T04:15:22.219Z,4.60
2023-02-22T04:17:48.764Z,4.58
2023-02-22T04:20:15.532Z,4.57
2023-02-22T04:22:41.925Z,4.57
2023-02-22T04:25:08.787Z,4.58
2023-02-22T04:27:35.172Z,4.61
2023-02-22T04:30:01.644Z,4.59
2023-02-22T04:32:28.050Z,4.61
2023-02-22T04:34:54.477Z,4.61
2023-02-22T04:37:20.882Z,4.61
2023-02-22T04:39:47.340Z,4.59
2023-02-22T04:42:13.735Z,4.58
2023-02-22T04:44:40.139Z,4.55
2023-02-22T04:47:06.517Z,4.52
2023-02-22T04:49:32.929Z,4.51
2023-02-22T04:51:59.298Z,4.50
2023-02-22T04:54:25.696Z,4.49
2023-02-22T04:56:52.178Z,4.49
2023-02-22T04:59:19.733Z,4.51
2023-02-22T05:01:46.647Z,4.53
2023-02-22T05:04:13.150Z,4.53
2023-02-22T05:06:39.578Z,4.54
2023-02-22T05:09:06.116Z,4.54
2023-02-22T05:11:32.574Z,4.53
2023-02-22T05:13:58.991Z,4.52
2023-02-22T05:16:26.406Z,4.49
2023-02-22T05:18:52.826Z,4.47
2023-02-22T05:21:19.400Z,4.43
2023-02-22T05:23:45.889Z,4.40
2023-02-22T05:26:12.330Z,4.36
2023-02-22T05:28:39.022Z,4.31
2023-02-22T05:31:07.282Z,4.27
2023-02-22T05:33:33.762Z,4.24
2023-02-22T05:36:00.167Z,4.21
2023-02-22T05:38:26.614Z,4.18
2023-02-22T05:40:53.102Z,4.17
2023-02-22T05:43:19.503Z,4.14
2023-02-22T05:45:46.001Z,4.13
2023-02-22T05:48:12.932Z,4.12
2023-02-22T05:50:39.597Z,4.12
2023-02-22T05:53:06.127Z,4.13
2023-02-22T05:55:33.065Z,4.12
2023-02-22T05:57:59.712Z,4.12
2023-02-22T06:00:29.585Z,4.10
2023-02-22T06:03:04.788Z,4.10
2023-02-22T06:05:31.627Z,4.10
2023-02-22T06:07:59.473Z,4.13
2023-02-22T06:10:26.740Z,4.16
2023-02-22T06:12:54.162Z,4.17
2023-02-22T06:15:22.877Z,4.17
2023-02-22T06:17:49.621Z,4.17
2023-02-22T06:20:19.975Z,4.19
2023-02-22T06:22:51.001Z,4.18
2023-02-22T06:25:21.327Z,4.17
2023-02-22T06:27:47.975Z,4.15
2023-02-22T06:30:23.690Z,4.15
2023-02-22T06:32:50.436Z,4.11
2023-02-22T06:35:18.000Z,4.11
2023-02-22T06:37:44.661Z,4.11
2023-02-22T06:40:12.472Z,4.10
2023-02-22T06:42:39.758Z,4.09
2023-02-22T06:45:07.400Z,4.08
2023-02-22T06:47:33.903Z,4.08
2023-02-22T06:50:00.990Z,4.04
2023-02-22T06:52:27.487Z,4.05
2023-02-22T06:54:53.931Z,4.02
2023-02-22T06:57:21.508Z,4.01
2023-02-22T06:59:47.975Z,4.00
2023-02-22T07:02:14.740Z,3.99
2023-02-22T07:04:43.399Z,4.00
2023-02-22T07:07:10.798Z,4.04
2023-02-22T07:09:37.296Z,4.06
2023-02-22T07:12:05.579Z,4.10
2023-02-22T07:14:31.946Z,4.14
2023-02-22T07:16:58.363Z,4.20
2023-02-22T07:19:24.737Z,4.25
2023-02-22T07:21:55.315Z,4.33
2023-02-22T07:24:21.793Z,4.41
2023-02-22T07:26:48.182Z,4.47
2023-02-22T07:29:14.588Z,4.52
2023-02-22T07:31:41.045Z,4.54
2023-02-22T07:34:07.452Z,4.58
2023-02-22T07:36:33.910Z,4.61
2023-02-22T07:39:00.310Z,4.66
2023-02-22T07:41:26.721Z,4.70
2023-02-22T07:43:53.108Z,4.77
2023-02-22T07:46:19.598Z,4.78
2023-02-22T07:48:46.014Z,4.82
2023-02-22T07:51:15.866Z,4.82
2023-02-22T07:53:42.432Z,4.86
2023-02-22T07:56:08.904Z,4.92
2023-02-22T07:58:35.705Z,4.99
2023-02-22T08:01:02.409Z,5.00
2023-02-22T08:03:31.820Z,5.10
2023-02-22T08:06:00.442Z,5.13
2023-02-22T08:08:27.961Z,5.21
2023-02-22T08:10:54.901Z,5.26
2023-02-22T08:13:22.634Z,5.30
2023-02-22T08:15:51.934Z,5.35
2023-02-22T08:18:19.362Z,5.35
2023-02-22T08:20:48.082Z,5.38
2023-02-22T08:23:16.577Z,5.40
2023-02-22T08:25:42.977Z,5.46
2023-02-22T08:28:12.031Z,5.48
2023-02-22T08:30:40.617Z,5.53
2023-02-22T08:33:07.471Z,5.60
2023-02-22T08:35:34.212Z,5.62
2023-02-22T08:38:06.017Z,5.66
2023-02-22T08:40:37.175Z,5.71
2023-02-22T08:43:04.487Z,5.73
2023-02-22T08:45:31.011Z,5.79
2023-02-22T08:47:59.391Z,5.84
2023-02-22T08:50:33.462Z,5.89
2023-02-22T08:53:01.579Z,5.90
2023-02-22T08:55:32.147Z,5.89
2023-02-22T08:58:03.179Z,5.83
2023-02-22T09:00:33.087Z,5.74
2023-02-22T09:03:03.542Z,5.72
2023-02-22T09:05:31.569Z,5.67
2023-02-22T09:07:58.571Z,5.64
2023-02-22T09:10:28.150Z,5.63
2023-02-22T09:12:58.306Z,5.58
2023-02-22T09:15:25.581Z,5.52
2023-02-22T09:17:53.298Z,5.55
2023-02-22T09:20:22.104Z,5.55
2023-02-22T09:22:49.316Z,5.51
2023-02-22T09:25:17.397Z,5.51
2023-02-22T09:27:45.084Z,5.56
2023-02-22T09:30:24.834Z,5.61
2023-02-22T09:32:53.686Z,5.73
2023-02-22T09:35:26.819Z,5.78
2023-02-22T09:37:58.787Z,5.87
2023-02-22T09:40:30.178Z,5.95
2023-02-22T09:43:10.678Z,6.06
2023-02-22T09:45:48.224Z,6.25
2023-02-22T09:48:22.108Z,6.39
2023-02-22T09:50:51.507Z,6.46
2023-02-22T09:53:29.692Z,6.62
2023-02-22T09:56:10.990Z,6.76
2023-02-22T09:58:45.793Z,6.88
2023-02-22T10:01:39.100Z,6.97
2023-02-22T10:04:52.735Z,7.04
2023-02-22T10:07:34.541Z,7.08
2023-02-22T10:10:06.310Z,7.13
2023-02-22T10:12:48.061Z,7.21
2023-02-22T10:15:23.321Z,7.30
2023-02-22T10:18:17.311Z,7.48
2023-02-22T10:21:38.306Z,7.63
2023-02-22T10:24:39.657Z,7.74
2023-02-22T10:27:13.339Z,7.86
2023-02-22T10:29:43.806Z,7.86
2023-02-22T10:32:25.458Z,7.93
2023-02-22T10:34:54.713Z,7.87
2023-02-22T10:37:31.532Z,7.96
2023-02-22T10:40:11.606Z,8.02
2023-02-22T10:42:38.048Z,8.27
2023-02-22T10:45:06.133Z,8.38
2023-02-22T10:47:33.887Z,8.49
2023-02-22T10:50:01.483Z,8.62
2023-02-22T10:52:31.103Z,8.64
2023-02-22T10:55:13.769Z,8.65
2023-02-22T10:57:44.240Z,8.69
2023-02-22T11:00:15.459Z,8.75
2023-02-22T11:02:54.631Z,8.87
2023-02-22T11:05:36.890Z,8.91
2023-02-22T11:08:21.756Z,9.14
2023-02-22T11:10:49.850Z,9.33
2023-02-22T11:13:30.024Z,9.45
2023-02-22T11:16:16.345Z,9.58
2023-02-22T11:18:43.089Z,9.50
2023-02-22T11:21:12.331Z,9.40
2023-02-22T11:23:44.392Z,9.43
2023-02-22T11:26:20.698Z,9.45
2023-02-22T11:28:50.833Z,9.62
2023-02-22T11:31:23.979Z,9.72
2023-02-22T11:34:27.156Z,9.72
2023-02-22T11:36:53.592Z,9.75
2023-02-22T11:39:29.600Z,9.84
2023-02-22T11:41:56.728Z,9.99
2023-02-22T11:44:24.975Z,10.12
2023-02-22T11:46:55.641Z,10.20
2023-02-22T11:49:33.240Z,10.38
2023-02-22T11:52:09.232Z,10.55
2023-02-22T11:55:00.896Z,10.73
2023-02-22T11:58:13.571Z,10.91
2023-02-22T12:00:58.693Z,11.03
2023-02-22T12:03:38.199Z,11.18
2023-02-22T12:06:29.222Z,11.34
2023-02-22T12:09:07.452Z,11.55
2023-02-22T12:11:45.348Z,11.77
2023-02-22T12:14:34.420Z,11.81
2023-02-22T12:17:09.714Z,11.86
2023-02-22T12:19:49.049Z,12.04
2023-02-22T12:22:21.619Z,12.15
2023-02-22T12:25:12.202Z,12.21
2023-02-22T12:27:49.204Z,12.23
2023-02-22T12:30:24.081Z,12.19
2023-02-22T12:32:53.808Z,12.29
2023-02-22T12:35:35.182Z,12.36
2023-02-22T12:38:23.400Z,12.38
2023-02-22T12:41:13.910Z,12.65
2023-02-22T12:43:51.724Z,12.81
2023-02-22T12:46:23.119Z,12.98
2023-02-22T12:49:00.839Z,13.19
2023-02-22T12:51:31.110Z,13.39
2023-02-22T12:54:35.108Z,13.71
2023-02-22T12:57:46.574Z,13.93
2023-02-22T13:00:26.263Z,14.20
2023-02-22T13:03:01.157Z,14.28
2023-02-22T13:05:34.632Z,14.34
2023-02-22T13:08:13.471Z,14.37
2023-02-22T13:10:58.709Z,14.45
2023-02-22T13:13:36.515Z,14.50
2023-02-22T13:16:24.413Z,14.47
2023-02-22T13:19:03.694Z,14.50
2023-02-22T13:21:45.407Z,14.51
2023-02-22T13:24:44.109Z,14.51
2023-02-22T13:27:16.901Z,14.67
2023-02-22T13:29:48.460Z,14.72
2023-02-22T13:32:45.238Z,14.90
2023-02-22T13:35:38.232Z,15.15
2023-02-22T13:38:23.276Z,15.45
2023-02-22T13:41:15.227Z,15.42
2023-02-22T13:44:06.598Z,15.57
2023-02-22T13:46:40.688Z,15.40
2023-02-22T13:49:30.129Z,15.50
2023-02-22T13:52:01.409Z,15.57
2023-02-22T13:54:44.574Z,15.79
2023-02-22T13:57:33.391Z,15.95
2023-02-22T14:00:14.783Z,16.11
2023-02-22T14:03:01.572Z,15.89
2023-02-22T14:05:43.276Z,15.99
2023-02-22T14:08:21.822Z,16.01
2023-02-22T14:10:51.177Z,16.12
2023-02-22T14:13:26.623Z,16.26
2023-02-22T14:16:05.164Z,16.31
2023-02-22T14:18:43.669Z,16.49
2023-02-22T14:21:20.316Z,16.36
2023-02-22T14:23:53.916Z,16.33
2023-02-22T14:26:28.329Z,16.47
2023-02-22T14:29:02.805Z,16.42
2023-02-22T14:31:37.348Z,16.54
2023-02-22T14:34:04.158Z,16.55
2023-02-22T14:36:37.968Z,16.58
2023-02-22T14:39:16.225Z,16.61
2023-02-22T14:41:50.014Z,16.70
2023-02-22T14:44:24.179Z,16.60
2023-02-22T14:46:53.979Z,16.44
2023-02-22T14:49:24.917Z,16.28
2023-02-22T14:51:59.619Z,16.21
2023-02-22T14:54:31.760Z,16.16
2023-02-22T14:57:24.361Z,16.04
2023-02-22T15:00:08.203Z,16.02
2023-02-22T15:02:38.875Z,16.02
2023-02-22T15:05:05.532Z,15.97
2023-02-22T15:07:35.747Z,15.87
2023-02-22T15:10:25.912Z,15.72
2023-02-22T15:13:10.983Z,15.56
2023-02-22T15:15:46.951Z,15.51
2023-02-22T15:18:40.641Z,15.42
2023-02-22T15:21:13.108Z,15.33
2023-02-22T15:23:49.000Z,15.23
2023-02-22T15:26:42.492Z,15.07
2023-02-22T15:29:19.260Z,15.02
2023-02-22T15:31:48.250Z,15.00
2023-02-22T15:34:15.050Z,14.96
2023-02-22T15:36:44.158Z,14.87
2023-02-22T15:39:34.170Z,14.79
2023-02-22T15:42:06.213Z,14.74
2023-02-22T15:44:41.463Z,14.68
2023-02-22T15:47:20.869Z,14.63
2023-02-22T15:50:17.512Z,14.58
2023-02-22T15:52:53.055Z,14.53
2023-02-22T15:55:25.526Z,14.48
2023-02-22T15:57:52.727Z,14.48
2023-02-22T16:00:33.282Z,14.46
2023-02-22T16:03:00.226Z,14.41
2023-02-22T16:05:37.090Z,14.36
2023-02-22T16:08:04.020Z,14.29
2023-02-22T16:10:33.498Z,14.25
2023-02-22T16:13:32.507Z,14.21
2023-02-22T16:16:03.974Z,14.14
2023-02-22T16:18:36.473Z,14.12
2023-02-22T16:21:13.871Z,14.09
2023-02-22T16:23:51.651Z,14.07
2023-02-22T16:26:30.263Z,14.07
2023-02-22T16:29:05.979Z,14.04
2023-02-22T16:31:37.640Z,14.02
2023-02-22T16:34:06.493Z,14.01
2023-02-22T16:36:45.812Z,13.96
2023-02-22T16:39:22.301Z,13.93
2023-02-22T16:41:50.606Z,13.89
2023-02-22T16:44:17.711Z,13.84
2023-02-22T16:46:44.352Z,13.80
2023-02-22T16:49:12.450Z,13.76
2023-02-22T16:51:49.316Z,13.71
2023-02-22T16:54:25.262Z,13.66
2023-02-22T16:56:54.496Z,13.60
2023-02-22T16:59:21.082Z,13.56
2023-02-22T17:01:47.503Z,13.50
2023-02-22T17:04:28.664Z,13.44
2023-02-22T17:06:55.070Z,13.37
2023-02-22T17:09:21.476Z,13.35
2023-02-22T17:11:51.361Z,13.30
2023-02-22T17:14:23.205Z,13.26
2023-02-22T17:16:52.666Z,13.22
2023-02-22T17:19:22.469Z,13.16
2023-02-22T17:21:50.115Z,13.10
2023-02-22T17:24:20.051Z,13.06
2023-02-22T17:26:46.489Z,12.99
2023-02-22T17:29:13.751Z,12.93
2023-02-22T17:31:40.278Z,12.88
2023-02-22T17:34:07.225Z,12.85
2023-02-22T17:36:36.343Z,12.83
2023-02-22T17:39:04.537Z,12.78
2023-02-22T17:41:31.444Z,12.73
2023-02-22T17:44:00.790Z,12.70
2023-02-22T17:46:27.334Z,12.64
2023-02-22T17:48:54.116Z,12.61
2023-02-22T17:51:22.707Z,12.58
2023-02-22T17:53:49.131Z,12.54
2023-02-22T17:56:21.119Z,12.50
2023-02-22T17:58:53.142Z,12.41
2023-02-22T18:01:28.349Z,12.34
2023-02-22T18:03:58.457Z,12.31
2023-02-22T18:06:27.173Z,12.27
2023-02-22T18:08:56.582Z,12.23
2023-02-22T18:11:26.373Z,12.17
2023-02-22T18:13:55.410Z,12.15
2023-02-22T18:16:22.581Z,12.11
2023-02-22T18:18:49.737Z,12.07
2023-02-22T18:21:16.288Z,12.03
2023-02-22T18:23:44.748Z,11.99
2023-02-22T18:26:16.964Z,11.96
2023-02-22T18:28:43.674Z,11.92
2023-02-22T18:31:15.116Z,11.88
2023-02-22T18:33:49.119Z,11.84
2023-02-22T18:36:16.997Z,11.78
2023-02-22T18:38:44.628Z,11.76
2023-02-22T18:41:16.126Z,11.74
2023-02-22T18:43:43.478Z,11.73
2023-02-22T18:46:09.831Z,11.72
2023-02-22T18:48:36.404Z,11.69
2023-02-22T18:51:05.819Z,11.66
2023-02-22T18:53:32.706Z,11.63
2023-02-22T18:56:06.990Z,11.60
2023-02-22T18:58:33.445Z,11.57
2023-02-22T19:01:01.235Z,11.55
2023-02-22T19:03:28.654Z,11.49
2023-02-22T19:06:00.285Z,11.46
2023-02-22T19:08:26.730Z,11.41
2023-02-22T19:10:53.114Z,11.37
2023-02-22T19:13:20.992Z,11.35
2023-02-22T19:15:47.445Z,11.34
2023-02-22T19:18:13.927Z,11.32
2023-02-22T19:23:10.293Z,11.28
2023-02-22T19:25:41.018Z,11.27
2023-02-22T19:28:07.434Z,11.23
2023-02-22T19:30:33.886Z,11.21
2023-02-22T19:33:02.556Z,11.18
2023-02-22T19:35:29.837Z,11.15
2023-02-22T19:37:56.247Z,11.11
2023-02-22T19:40:23.217Z,11.10
2023-02-22T19:42:54.630Z,11.07
2023-02-22T19:45:23.385Z,11.07
2023-02-22T19:47:56.236Z,11.08
2023-02-22T19:50:22.998Z,11.07
2023-02-22T19:52:49.492Z,11.08
2023-02-22T19:55:15.939Z,11.12
2023-02-22T19:57:49.826Z,11.12
2023-02-22T20:00:24.291Z,11.12
2023-02-22T20:03:05.462Z,11.14
2023-02-22T20:05:33.720Z,11.12
2023-02-22T20:08:00.185Z,11.12
2023-02-22T20:10:26.695Z,11.11
2023-02-22T20:12:53.138Z,11.10
2023-02-22T20:15:19.569Z,11.12
2023-02-22T20:17:50.277Z,11.13
2023-02-22T20:20:18.372Z,11.12
2023-02-22T20:22:45.583Z,11.12
2023-02-22T20:25:13.560Z,11.13
2023-02-22T20:27:40.168Z,11.13
2023-02-22T20:30:09.794Z,11.14
2023-02-22T20:32:37.763Z,11.13
2023-02-22T20:35:05.715Z,11.13
2023-02-22T20:37:33.991Z,11.11
2023-02-22T20:40:00.449Z,11.10
2023-02-22T20:42:27.415Z,11.08
2023-02-22T20:44:54.487Z,11.08
2023-02-22T20:47:20.974Z,11.07
2023-02-22T20:49:47.383Z,11.06
2023-02-22T20:52:13.759Z,11.06
2023-02-22T20:54:40.221Z,11.08
2023-02-22T20:57:08.086Z,11.08
2023-02-22T20:59:34.580Z,11.08
2023-02-22T21:02:00.987Z,11.08
2023-02-22T21:04:32.923Z,11.08
2023-02-22T21:07:03.127Z,11.06
2023-02-22T21:09:29.794Z,11.05
2023-02-22T21:11:56.201Z,11.04
2023-02-22T21:14:24.248Z,11.01
2023-02-22T21:16:51.894Z,10.99
2023-02-22T21:19:25.656Z,10.99
2023-02-22T21:21:56.364Z,10.98
2023-02-22T21:24:25.085Z,10.97
2023-02-22T21:26:52.130Z,10.97
2023-02-22T21:29:19.317Z,10.96
2023-02-22T21:31:45.918Z,10.93
2023-02-22T21:34:13.638Z,10.91
2023-02-22T21:36:40.149Z,10.91
2023-02-22T21:39:18.229Z,10.90
2023-02-22T21:41:49.716Z,10.88
2023-02-22T21:44:17.064Z,10.88
2023-02-22T21:46:43.794Z,10.85
2023-02-22T21:49:11.261Z,10.84
2023-02-22T21:51:40.704Z,10.84
2023-02-22T21:54:09.694Z,10.82
2023-02-22T21:56:39.761Z,10.82
2023-02-22T21:59:19.059Z,10.82
2023-02-22T22:01:49.597Z,10.84
2023-02-22T22:04:21.338Z,10.85
2023-02-22T22:06:50.845Z,10.88
2023-02-22T22:09:20.599Z,10.87
2023-02-22T22:11:49.756Z,10.89
2023-02-22T22:14:20.351Z,10.89
2023-02-22T22:16:48.618Z,10.89
2023-02-22T22:19:15.257Z,10.90
2023-02-22T22:21:41.862Z,10.89
2023-02-22T22:24:10.409Z,10.92
2023-02-22T22:26:38.093Z,10.91
2023-02-22T22:29:05.468Z,10.90
2023-02-22T22:31:32.178Z,10.90
2023-02-22T22:33:58.621Z,10.88
2023-02-22T22:36:27.014Z,10.90
2023-02-22T22:38:57.435Z,10.89
2023-02-22T22:41:27.927Z,10.87
2023-02-22T22:43:54.814Z,10.86
2023-02-22T22:46:21.520Z,10.87
2023-02-22T22:48:48.196Z,10.86
2023-02-22T22:51:19.748Z,10.88
2023-02-22T22:53:48.538Z,10.88
2023-02-22T22:56:20.898Z,10.89
2023-02-22T22:58:49.640Z,10.89
2023-02-22T23:01:19.621Z,10.88
2023-02-22T23:03:55.964Z,10.84
2023-02-22T23:06:25.100Z,10.80
2023-02-22T23:09:00.142Z,10.78
2023-02-22T23:11:33.641Z,10.80
2023-02-22T23:14:03.517Z,10.81
2023-02-22T23:16:32.203Z,10.82
2023-02-22T23:18:58.952Z,10.82
2023-02-22T23:21:25.470Z,10.82
2023-02-22T23:23:56.249Z,10.81
2023-02-22T23:26:26.452Z,10.79
2023-02-22T23:28:59.124Z,10.81
2023-02-22T23:31:28.862Z,10.79
2023-02-22T23:33:58.538Z,10.77
2023-02-22T23:36:26.308Z,10.75
2023-02-22T23:38:54.185Z,10.75
2023-02-22T23:41:20.990Z,10.75
2023-02-22T23:43:47.571Z,10.73
2023-02-22T23:46:18.680Z,10.73
2023-02-22T23:48:54.420Z,10.71
2023-02-22T23:51:25.427Z,10.70
2023-02-22T23:53:55.702Z,10.69
2023-02-22T23:56:27.832Z,10.69
2023-02-22T23:58:57.365Z,10.71
